createdAt,value
2018-09-28T00:02:18.738Z,96942.90
2018-09-28T00:04:47.326Z,96939.73
2018-09-28T00:07:15.680Z,96940.91
2018-09-28T00:09:44.268Z,96939.73
2018-09-28T00:12:12.790Z,96935.92
2018-09-28T00:14:41.218Z,96939.23
2018-09-28T00:17:09.897Z,96931.78
2018-09-28T00:19:38.198Z,96931.44
2018-09-28T00:22:07.006Z,96926.83
2018-09-28T00:24:35.502Z,96927.30
2018-09-28T00:27:03.784Z,96920.66
2018-09-28T00:29:32.104Z,96918.17
2018-09-28T00:32:00.430Z,96918.01
2018-09-28T00:34:29.226Z,96917.66
2018-09-28T00:36:57.882Z,96918.01
2018-09-28T00:39:26.198Z,96914.54
2018-09-28T00:41:54.478Z,96907.09
2018-09-28T00:44:22.934Z,96902.25
2018-09-28T00:46:51.282Z,96911.38
2018-09-28T00:49:19.670Z,96912.05
2018-09-28T00:51:48.086Z,96904.91
2018-09-28T00:54:16.602Z,96901.59
2018-09-28T00:56:44.878Z,96892.74
2018-09-28T00:59:13.202Z,96894.30
2018-09-28T01:01:41.498Z,96892.47
2018-09-28T01:04:09.810Z,96892.16
2018-09-28T01:06:38.162Z,96884.86
2018-09-28T01:09:08.508Z,96886.19
2018-09-28T01:11:36.818Z,96879.20
2018-09-28T01:14:05.306Z,96883.81
2018-09-28T01:16:33.601Z,96876.67
2018-09-28T01:19:01.899Z,96881.11
2018-09-28T01:21:30.226Z,96878.46
2018-09-28T01:23:58.630Z,96872.34
2018-09-28T01:26:26.914Z,96867.23
2018-09-28T01:28:55.407Z,96860.64
2018-09-28T01:31:23.738Z,96862.13
2018-09-28T01:33:52.234Z,96862.63
2018-09-28T01:36:20.654Z,96858.15
2018-09-28T01:38:49.484Z,96861.78
2018-09-28T01:41:17.978Z,96856.13
2018-09-28T01:43:46.564Z,96858.93
2018-09-28T01:46:14.938Z,96850.32
2018-09-28T01:48:43.322Z,96850.38
2018-09-28T01:51:11.722Z,96846.88
2018-09-28T01:53:42.930Z,96851.70
2018-09-28T01:56:11.221Z,96853.34
2018-09-28T01:58:39.702Z,96845.23
2018-09-28T02:01:08.166Z,96846.02
2018-09-28T02:03:36.462Z,96851.05
2018-09-28T02:06:04.958Z,96850.70
2018-09-28T02:08:33.242Z,96845.23
2018-09-28T02:11:01.664Z,96842.08
2018-09-28T02:13:29.998Z,96835.30
2018-09-28T02:15:58.526Z,96832.64
2018-09-28T02:18:26.803Z,96827.34
2018-09-28T02:20:55.106Z,96831.81
2018-09-28T02:23:23.470Z,96833.64
2018-09-28T02:25:52.050Z,96830.14
2018-09-28T02:28:20.361Z,96830.14
2018-09-28T02:30:48.716Z,96832.80
2018-09-28T02:33:17.097Z,96826.52
2018-09-28T02:35:45.613Z,96830.49
2018-09-28T02:38:14.186Z,96824.52
2018-09-28T02:40:42.538Z,96831.31
2018-09-28T02:43:10.942Z,96828.63
2018-09-28T02:45:39.258Z,96819.83
2018-09-28T02:48:07.678Z,96818.00
2018-09-28T02:50:36.137Z,96815.53
2018-09-28T02:53:04.479Z,96818.84
2018-09-28T02:55:32.845Z,96821.50
2018-09-28T02:58:01.892Z,96827.94
2018-09-28T03:00:30.273Z,96816.02
2018-09-28T03:02:58.556Z,96815.34
2018-09-28T03:05:27.817Z,96814.84
2018-09-28T03:07:56.204Z,96818.50
2018-09-28T03:10:24.718Z,96811.53
2018-09-28T03:12:53.178Z,96819.67
2018-09-28T03:15:21.527Z,96812.53
2018-09-28T03:17:49.946Z,96818.81
2018-09-28T03:20:18.482Z,96811.53
2018-09-28T03:22:46.818Z,96806.53
2018-09-28T03:25:15.193Z,96810.52
2018-09-28T03:27:43.802Z,96809.88
2018-09-28T03:30:12.215Z,96805.21
2018-09-28T03:32:40.522Z,96808.88
2018-09-28T03:35:09.022Z,96806.22
2018-09-28T03:37:37.382Z,96803.41
2018-09-28T03:40:05.770Z,96801.43
2018-09-28T03:42:34.266Z,96798.11
2018-09-28T03:45:02.926Z,96796.44
2018-09-28T03:47:31.325Z,96796.44
2018-09-28T03:50:00.561Z,96795.77
2018-09-28T03:52:29.110Z,96785.17
2018-09-28T03:54:57.487Z,96788.12
2018-09-28T03:57:25.888Z,96784.66
2018-09-28T03:59:54.233Z,96783.34
2018-09-28T04:02:22.498Z,96779.68
2018-09-28T04:04:50.902Z,96781.70
2018-09-28T04:07:19.185Z,96776.56
2018-09-28T04:09:47.631Z,96785.84
2018-09-28T04:12:16.238Z,96787.98
2018-09-28T04:14:44.613Z,96787.67
2018-09-28T04:17:12.975Z,96793.95
2018-09-28T04:19:41.394Z,96789.97
2018-09-28T04:22:09.683Z,96788.33
2018-09-28T04:24:37.941Z,96792.47
2018-09-28T04:27:06.244Z,96794.45
2018-09-28T04:29:34.760Z,96793.98
2018-09-28T04:32:03.143Z,96795.62
2018-09-28T04:34:31.473Z,96785.37
2018-09-28T04:36:59.801Z,96794.96
2018-09-28T04:39:28.188Z,96787.86
2018-09-28T04:41:56.581Z,96785.88
2018-09-28T04:44:24.937Z,96788.02
2018-09-28T04:46:53.331Z,96784.20
2018-09-28T04:49:21.725Z,96782.22
2018-09-28T04:51:50.010Z,96781.55
2018-09-28T04:54:18.289Z,96785.02
2018-09-28T04:56:46.601Z,96793.98
2018-09-28T04:59:14.900Z,96797.11
2018-09-28T05:01:43.294Z,96800.42
2018-09-28T05:04:11.695Z,96798.94
2018-09-28T05:06:40.586Z,96801.43
2018-09-28T05:09:10.810Z,96812.53
2018-09-28T05:11:39.118Z,96807.55
2018-09-28T05:14:07.519Z,96802.59
2018-09-28T05:16:36.021Z,96803.77
2018-09-28T05:19:04.338Z,96807.08
2018-09-28T05:21:32.960Z,96800.45
2018-09-28T05:24:01.266Z,96802.91
2018-09-28T05:26:29.646Z,96803.41
2018-09-28T05:28:58.134Z,96802.91
2018-09-28T05:31:27.770Z,96806.07
2018-09-28T05:33:56.301Z,96801.11
2018-09-28T05:36:24.659Z,96803.26
2018-09-28T05:38:52.961Z,96804.23
2018-09-28T05:41:21.549Z,96812.38
2018-09-28T05:43:50.122Z,96811.72
2018-09-28T05:46:18.310Z,96800.92
2018-09-28T05:48:46.886Z,96796.12
2018-09-28T05:51:15.413Z,96802.59
2018-09-28T05:53:43.646Z,96801.11
2018-09-28T05:56:12.038Z,96809.73
2018-09-28T05:58:45.599Z,96798.46
2018-09-28T06:01:19.330Z,96793.16
2018-09-28T06:03:52.786Z,96797.13
2018-09-28T06:06:21.154Z,96794.48
2018-09-28T06:08:49.439Z,96800.29
2018-09-28T06:11:17.958Z,96803.12
2018-09-28T06:13:46.263Z,96799.14
2018-09-28T06:16:14.578Z,96804.78
2018-09-28T06:18:42.885Z,96812.89
2018-09-28T06:21:11.432Z,96805.28
2018-09-28T06:23:39.834Z,96806.94
2018-09-28T06:26:08.234Z,96804.28
2018-09-28T06:28:36.722Z,96803.61
2018-09-28T06:31:05.008Z,96801.59
2018-09-28T06:33:33.436Z,96800.92
2018-09-28T06:36:02.093Z,96802.58
2018-09-28T06:38:30.341Z,96807.39
2018-09-28T06:40:58.701Z,96797.41
2018-09-28T06:43:27.105Z,96805.85
2018-09-28T06:45:55.454Z,96803.02
2018-09-28T06:48:23.956Z,96808.63
2018-09-28T06:50:52.245Z,96804.45
2018-09-28T06:53:20.674Z,96812.73
2018-09-28T06:55:48.978Z,96816.36
2018-09-28T06:58:17.755Z,96816.83
2018-09-28T07:00:45.986Z,96817.61
2018-09-28T07:03:14.298Z,96824.03
2018-09-28T07:05:42.740Z,96826.67
2018-09-28T07:08:10.998Z,96833.95
2018-09-28T07:10:39.322Z,96831.55
2018-09-28T07:13:07.638Z,96833.33
2018-09-28T07:15:35.994Z,96839.09
2018-09-28T07:18:04.401Z,96835.22
2018-09-28T07:20:32.769Z,96842.62
2018-09-28T07:23:01.055Z,96842.08
2018-09-28T07:25:29.401Z,96839.69
2018-09-28T07:27:57.814Z,96843.27
2018-09-28T07:30:26.170Z,96829.91
2018-09-28T07:32:54.534Z,96828.33
2018-09-28T07:35:22.999Z,96820.91
2018-09-28T07:37:51.268Z,96817.84
2018-09-28T07:40:20.008Z,96820.97
2018-09-28T07:42:48.416Z,96812.06
2018-09-28T07:45:16.742Z,96818.94
2018-09-28T07:47:45.322Z,96818.53
2018-09-28T07:50:13.824Z,96815.59
2018-09-28T07:52:42.169Z,96826.84
2018-09-28T07:55:11.257Z,96827.94
2018-09-28T07:57:39.737Z,96818.20
2018-09-28T08:00:08.178Z,96816.77
2018-09-28T08:02:36.470Z,96820.34
2018-09-28T08:05:04.997Z,96818.59
2018-09-28T08:07:39.825Z,96824.96
2018-09-28T08:10:08.143Z,96826.02
2018-09-28T08:12:36.600Z,96824.09
2018-09-28T08:15:05.161Z,96823.27
2018-09-28T08:17:33.611Z,96822.17
2018-09-28T08:20:01.915Z,96819.52
2018-09-28T08:22:30.310Z,96823.90
2018-09-28T08:24:58.735Z,96825.02
2018-09-28T08:27:27.022Z,96827.95
2018-09-28T08:29:56.425Z,96819.69
2018-09-28T08:32:24.766Z,96818.92
2018-09-28T08:34:53.066Z,96818.14
2018-09-28T08:37:21.398Z,96815.47
2018-09-28T08:39:49.986Z,96814.95
2018-09-28T08:42:18.369Z,96818.92
2018-09-28T08:44:46.744Z,96819.20
2018-09-28T08:47:15.162Z,96821.94
2018-09-28T08:49:43.666Z,96820.91
2018-09-28T08:52:11.967Z,96818.70
2018-09-28T08:54:40.383Z,96820.81
2018-09-28T08:57:08.687Z,96815.10
2018-09-28T08:59:36.962Z,96817.73
2018-09-28T09:02:05.476Z,96817.36
2018-09-28T09:04:33.750Z,96816.90
2018-09-28T09:07:02.139Z,96817.34
2018-09-28T09:09:30.722Z,96811.53
2018-09-28T09:11:59.850Z,96810.84
2018-09-28T09:14:28.292Z,96805.28
2018-09-28T09:16:56.703Z,96808.90
2018-09-28T09:19:25.002Z,96802.42
2018-09-28T09:21:53.287Z,96807.67
2018-09-28T09:24:21.610Z,96800.87
2018-09-28T09:26:50.019Z,96800.27
2018-09-28T09:29:18.364Z,96794.91
2018-09-28T09:31:46.667Z,96789.23
2018-09-28T09:34:14.999Z,96791.70
2018-09-28T09:36:43.915Z,96789.64
2018-09-28T09:39:12.913Z,96783.65
2018-09-28T09:41:41.466Z,96782.20
2018-09-28T09:44:09.750Z,96777.24
2018-09-28T09:46:38.662Z,96779.28
2018-09-28T09:49:07.239Z,96774.66
2018-09-28T09:51:35.547Z,96787.45
2018-09-28T09:54:03.860Z,96777.55
2018-09-28T09:56:32.167Z,96774.73
2018-09-28T09:59:00.443Z,96773.69
2018-09-28T10:01:34.152Z,96773.66
2018-09-28T10:04:09.774Z,96775.80
2018-09-28T10:06:38.374Z,96776.28
2018-09-28T10:09:12.829Z,96770.70
2018-09-28T10:11:47.529Z,96773.62
2018-09-28T10:14:15.808Z,96767.52
2018-09-28T10:16:44.139Z,96760.26
2018-09-28T10:19:12.560Z,96761.27
2018-09-28T10:21:40.922Z,96761.55
2018-09-28T10:24:09.245Z,96758.05
2018-09-28T10:26:37.723Z,96749.68
2018-09-28T10:29:06.285Z,96742.97
2018-09-28T10:31:34.657Z,96740.68
2018-09-28T10:34:03.071Z,96742.73
2018-09-28T10:36:31.625Z,96742.36
2018-09-28T10:38:59.987Z,96732.05
2018-09-28T10:41:28.385Z,96727.28
2018-09-28T10:43:56.743Z,96723.15
2018-09-28T10:46:25.144Z,96719.27
2018-09-28T10:48:53.468Z,96712.62
2018-09-28T10:51:22.176Z,96707.44
2018-09-28T10:53:50.417Z,96709.23
2018-09-28T10:56:18.791Z,96699.48
2018-09-28T10:58:47.091Z,96696.02
2018-09-28T11:01:15.355Z,96689.77
2018-09-28T11:03:43.869Z,96695.69
2018-09-28T11:06:12.243Z,96687.05
2018-09-28T11:08:40.535Z,96686.99
2018-09-28T11:11:08.947Z,96689.71
2018-09-28T11:13:37.264Z,96686.78
2018-09-28T11:16:05.656Z,96683.44
2018-09-28T11:18:33.973Z,96677.50
2018-09-28T11:21:02.269Z,96675.20
2018-09-28T11:23:30.585Z,96677.50
2018-09-28T11:25:59.000Z,96673.23
2018-09-28T11:28:27.294Z,96675.04
2018-09-28T11:30:55.582Z,96665.73
2018-09-28T11:33:24.009Z,96663.97
2018-09-28T11:35:52.178Z,96653.20
2018-09-28T11:38:20.811Z,96656.30
2018-09-28T11:40:49.127Z,96656.13
2018-09-28T11:43:17.413Z,96655.06
2018-09-28T11:45:45.741Z,96649.05
2018-09-28T11:48:14.302Z,96650.70
2018-09-28T11:50:42.664Z,96645.70
2018-09-28T11:53:10.966Z,96640.56
2018-09-28T11:55:39.299Z,96641.15
2018-09-28T11:58:07.614Z,96637.11
2018-09-28T12:00:35.893Z,96631.64
2018-09-28T12:03:04.482Z,96632.59
2018-09-28T12:05:32.821Z,96624.34
2018-09-28T12:08:01.115Z,96615.43
2018-09-28T12:10:29.457Z,96619.36
2018-09-28T12:12:57.721Z,96615.25
2018-09-28T12:15:26.059Z,96617.34
2018-09-28T12:17:54.329Z,96607.58
2018-09-28T12:20:22.603Z,96610.26
2018-09-28T12:22:50.908Z,96607.20
2018-09-28T12:25:19.217Z,96605.70
2018-09-28T12:27:47.531Z,96603.05
2018-09-28T12:30:15.912Z,96598.22
2018-09-28T12:32:44.488Z,96597.77
2018-09-28T12:35:12.947Z,96590.11
2018-09-28T12:37:41.324Z,96584.87
2018-09-28T12:40:09.770Z,96581.16
2018-09-28T12:42:38.111Z,96584.52
2018-09-28T12:45:06.492Z,96585.66
2018-09-28T12:47:36.028Z,96573.95
2018-09-28T12:50:04.380Z,96574.02
2018-09-28T12:52:32.661Z,96570.14
2018-09-28T12:55:01.005Z,96565.52
2018-09-28T12:57:29.263Z,96564.83
2018-09-28T12:59:57.539Z,96554.92
2018-09-28T13:02:26.068Z,96556.84
2018-09-28T13:04:54.265Z,96559.03
2018-09-28T13:07:22.690Z,96555.63
2018-09-28T13:09:51.005Z,96556.54
2018-09-28T13:12:19.367Z,96555.08
2018-09-28T13:14:47.782Z,96549.11
2018-09-28T13:17:16.152Z,96549.25
2018-09-28T13:19:44.465Z,96549.92
2018-09-28T13:22:12.755Z,96548.69
2018-09-28T13:24:41.254Z,96549.69
2018-09-28T13:27:09.505Z,96543.95
2018-09-28T13:29:37.803Z,96537.47
2018-09-28T13:32:06.178Z,96535.52
2018-09-28T13:34:34.419Z,96534.63
2018-09-28T13:37:03.913Z,96535.05
2018-09-28T13:39:32.253Z,96530.12
2018-09-28T13:42:00.541Z,96529.80
2018-09-28T13:44:28.917Z,96526.77
2018-09-28T13:46:57.223Z,96528.41
2018-09-28T13:49:25.555Z,96531.92
2018-09-28T13:51:53.891Z,96529.08
2018-09-28T13:54:22.332Z,96526.28
2018-09-28T13:57:32.625Z,96524.03
2018-09-28T14:00:00.953Z,96527.86
2018-09-28T14:02:29.262Z,96519.45
2018-09-28T14:04:57.546Z,96518.34
2018-09-28T14:07:25.866Z,96516.88
2018-09-28T14:09:54.205Z,96508.48
2018-09-28T14:12:22.501Z,96509.20
2018-09-28T14:14:50.857Z,96506.98
2018-09-28T14:17:19.087Z,96509.12
2018-09-28T14:19:47.385Z,96506.77
2018-09-28T14:22:15.774Z,96507.73
2018-09-28T14:24:44.061Z,96503.80
2018-09-28T14:27:12.338Z,96506.11
2018-09-28T14:29:40.710Z,96502.17
2018-09-28T14:32:09.034Z,96506.08
2018-09-28T14:34:37.359Z,96513.73
2018-09-28T14:37:05.643Z,96511.05
2018-09-28T14:39:33.958Z,96511.03
2018-09-28T14:42:02.377Z,96510.26
2018-09-28T14:44:30.641Z,96511.16
2018-09-28T14:46:58.914Z,96515.52
2018-09-28T14:49:27.236Z,96514.69
2018-09-28T14:51:55.670Z,96511.41
2018-09-28T14:54:24.192Z,96516.14
2018-09-28T14:56:52.478Z,96510.83
2018-09-28T14:59:20.794Z,96516.29
2018-09-28T15:01:49.654Z,96516.66
2018-09-28T15:04:17.964Z,96509.45
2018-09-28T15:06:46.371Z,96510.47
2018-09-28T15:09:14.583Z,96515.49
2018-09-28T15:11:42.875Z,96519.91
2018-09-28T15:14:11.325Z,96519.74
2018-09-28T15:16:39.928Z,96517.13
2018-09-28T15:19:08.379Z,96521.30
2018-09-28T15:21:36.918Z,96516.59
2018-09-28T15:24:05.246Z,96513.48
2018-09-28T15:26:33.503Z,96515.52
2018-09-28T15:29:01.795Z,96518.28
2018-09-28T15:31:30.139Z,96518.39
2018-09-28T15:33:58.463Z,96519.56
2018-09-28T15:36:26.801Z,96519.01
2018-09-28T15:38:56.084Z,96521.48
2018-09-28T15:41:24.462Z,96520.56
2018-09-28T15:43:53.072Z,96524.03
2018-09-28T15:46:21.356Z,96519.61
2018-09-28T15:48:49.619Z,96521.45
2018-09-28T15:51:17.959Z,96519.98
2018-09-28T15:53:46.226Z,96518.73
2018-09-28T15:56:14.608Z,96521.11
2018-09-28T15:58:42.907Z,96525.84
2018-09-28T16:01:12.185Z,96521.37
2018-09-28T16:03:40.605Z,96532.56
2018-09-28T16:06:09.000Z,96525.48
2018-09-28T16:08:37.270Z,96533.44
2018-09-28T16:11:05.593Z,96536.31
2018-09-28T16:13:33.907Z,96544.58
2018-09-28T16:16:02.205Z,96536.37
2018-09-28T16:18:30.552Z,96540.23
2018-09-28T16:20:58.901Z,96537.14
2018-09-28T16:23:27.369Z,96540.01
2018-09-28T16:25:55.701Z,96542.12
2018-09-28T16:28:24.043Z,96543.11
2018-09-28T16:30:52.329Z,96544.62
2018-09-28T16:33:20.709Z,96551.77
2018-09-28T16:35:49.188Z,96556.39
2018-09-28T16:38:17.407Z,96558.56
2018-09-28T16:40:45.719Z,96561.88
2018-09-28T16:43:14.031Z,96570.17
2018-09-28T16:45:42.707Z,96568.61
2018-09-28T16:48:11.073Z,96567.26
2018-09-28T16:50:39.485Z,96574.91
2018-09-28T16:53:07.929Z,96577.18
2018-09-28T16:55:36.300Z,96576.59
2018-09-28T16:58:04.630Z,96580.31
2018-09-28T17:00:32.897Z,96589.14
2018-09-28T17:03:01.182Z,96589.00
2018-09-28T17:05:29.503Z,96592.44
2018-09-28T17:07:58.018Z,96594.54
2018-09-28T17:10:26.306Z,96597.39
2018-09-28T17:12:54.634Z,96599.94
2018-09-28T17:15:22.914Z,96606.81
2018-09-28T17:17:51.187Z,96602.94
2018-09-28T17:20:19.525Z,96607.89
2018-09-28T17:22:47.820Z,96608.58
2018-09-28T17:25:16.102Z,96617.61
2018-09-28T17:27:44.412Z,96618.34
2018-09-28T17:30:12.697Z,96618.98
2018-09-28T17:32:40.970Z,96611.98
2018-09-28T17:35:09.474Z,96620.20
2018-09-28T17:37:37.749Z,96622.08
2018-09-28T17:40:06.136Z,96629.55
2018-09-28T17:42:34.558Z,96630.66
2018-09-28T17:45:03.036Z,96629.52
2018-09-28T17:47:32.550Z,96635.94
2018-09-28T17:50:01.002Z,96633.61
2018-09-28T17:52:29.282Z,96638.91
2018-09-28T17:54:57.590Z,96652.98
2018-09-28T17:57:25.956Z,96649.31
2018-09-28T17:59:54.265Z,96660.80
2018-09-28T18:02:22.562Z,96663.20
2018-09-28T18:04:51.153Z,96670.19
2018-09-28T18:07:19.445Z,96667.61
2018-09-28T18:09:47.773Z,96676.77
2018-09-28T18:12:16.282Z,96678.39
2018-09-28T18:14:44.724Z,96687.75
2018-09-28T18:17:13.353Z,96686.65
2018-09-28T18:19:41.705Z,96692.69
2018-09-28T18:22:10.086Z,96697.66
2018-09-28T18:24:38.405Z,96706.87
2018-09-28T18:27:07.205Z,96697.00
2018-09-28T18:29:35.950Z,96704.77
2018-09-28T18:32:04.410Z,96710.08
2018-09-28T18:34:32.718Z,96708.08
2018-09-28T18:37:01.060Z,96708.47
2018-09-28T18:39:36.148Z,96710.63
2018-09-28T18:42:04.503Z,96718.68
2018-09-28T18:44:32.940Z,96718.39
2018-09-28T18:47:01.384Z,96721.42
2018-09-28T18:49:30.065Z,96721.10
2018-09-28T18:51:58.359Z,96721.81
2018-09-28T18:54:26.825Z,96718.68
2018-09-28T18:56:55.150Z,96723.77
2018-09-28T18:59:23.485Z,96723.58
2018-09-28T19:01:51.856Z,96725.37
2018-09-28T19:04:20.290Z,96729.20
2018-09-28T19:06:48.694Z,96734.39
2018-09-28T19:09:17.197Z,96738.25
2018-09-28T19:11:52.189Z,96738.87
2018-09-28T19:14:20.621Z,96744.90
2018-09-28T19:16:49.157Z,96743.28
2018-09-28T19:19:18.523Z,96745.56
2018-09-28T19:21:46.989Z,96749.30
2018-09-28T19:24:15.311Z,96752.19
2018-09-28T19:26:43.587Z,96758.41
2018-09-28T19:29:12.016Z,96762.52
2018-09-28T19:31:40.350Z,96768.48
2018-09-28T19:34:08.661Z,96769.95
2018-09-28T19:36:36.964Z,96781.81
2018-09-28T19:39:07.643Z,96778.97
2018-09-28T19:41:35.983Z,96776.48
2018-09-28T19:44:04.462Z,96776.58
2018-09-28T19:46:33.999Z,96784.70
2018-09-28T19:49:02.441Z,96787.30
2018-09-28T19:51:31.401Z,96789.38
2018-09-28T19:53:59.696Z,96797.85
2018-09-28T19:56:28.127Z,96800.01
2018-09-28T19:58:56.538Z,96794.44
2018-09-28T20:01:24.859Z,96807.14
2018-09-28T20:03:53.276Z,96801.78
2018-09-28T20:06:21.589Z,96795.37
2018-09-28T20:08:49.913Z,96786.60
2018-09-28T20:11:18.204Z,96789.28
2018-09-28T20:13:46.555Z,96797.32
2018-09-28T20:16:14.867Z,96804.02
2018-09-28T20:18:43.161Z,96799.39
2018-09-28T20:21:11.519Z,96804.98
2018-09-28T20:23:39.812Z,96811.69
2018-09-28T20:26:08.205Z,96812.72
2018-09-28T20:28:36.632Z,96818.20
2018-09-28T20:31:05.121Z,96820.35
2018-09-28T20:33:33.588Z,96822.83
2018-09-28T20:36:01.981Z,96817.47
2018-09-28T20:38:30.326Z,96822.50
2018-09-28T20:40:58.622Z,96818.40
2018-09-28T20:43:27.229Z,96819.12
2018-09-28T20:45:55.685Z,96819.52
2018-09-28T20:48:24.069Z,96817.58
2018-09-28T20:50:52.461Z,96824.06
2018-09-28T20:53:20.799Z,96829.83
2018-09-28T20:55:49.125Z,96832.12
2018-09-28T20:58:17.506Z,96837.15
2018-09-28T21:00:45.821Z,96838.81
2018-09-28T21:03:14.136Z,96846.20
2018-09-28T21:05:42.497Z,96847.77
2018-09-28T21:08:11.704Z,96852.80
2018-09-28T21:10:40.081Z,96857.22
2018-09-28T21:13:08.498Z,96864.22
2018-09-28T21:15:36.772Z,96871.62
2018-09-28T21:18:05.040Z,96875.52
2018-09-28T21:20:33.684Z,96873.06
2018-09-28T21:23:02.069Z,96877.58
2018-09-28T21:25:30.395Z,96874.60
2018-09-28T21:27:58.733Z,96865.75
2018-09-28T21:30:27.024Z,96871.92
2018-09-28T21:32:55.341Z,96869.02
2018-09-28T21:35:23.720Z,96876.13
2018-09-28T21:37:51.973Z,96884.03
2018-09-28T21:40:20.306Z,96878.64
2018-09-28T21:42:48.709Z,96877.78
2018-09-28T21:45:17.197Z,96883.61
2018-09-28T21:47:45.553Z,96892.25
2018-09-28T21:50:13.942Z,96900.89
2018-09-28T21:52:42.807Z,96910.53
2018-09-28T21:55:11.189Z,96920.80
2018-09-28T21:57:39.790Z,96915.13
2018-09-28T22:00:08.085Z,96921.52
2018-09-28T22:02:36.429Z,96912.61
2018-09-28T22:05:04.865Z,96927.41
2018-09-28T22:07:33.137Z,96928.56
2018-09-28T22:10:01.459Z,96936.25
2018-09-28T22:12:29.874Z,96950.97
2018-09-28T22:14:58.183Z,96953.53
2018-09-28T22:17:26.433Z,96961.22
2018-09-28T22:19:54.743Z,96960.11
2018-09-28T22:22:23.013Z,96960.16
2018-09-28T22:24:51.827Z,96971.08
2018-09-28T22:27:20.144Z,96976.28
2018-09-28T22:29:48.425Z,96968.14
2018-09-28T22:32:16.749Z,96973.88
2018-09-28T22:34:45.267Z,96979.92
2018-09-28T22:37:20.211Z,96974.98
2018-09-28T22:39:48.647Z,96971.98
2018-09-28T22:42:16.944Z,96971.35
2018-09-28T22:44:45.305Z,96973.73
2018-09-28T22:47:13.835Z,96975.36
2018-09-28T22:49:42.163Z,96983.45
2018-09-28T22:52:10.434Z,96991.85
2018-09-28T22:54:38.794Z,96993.08
2018-09-28T22:57:06.789Z,96987.61
2018-09-28T22:59:35.173Z,96999.31
2018-09-28T23:02:03.619Z,97001.98
2018-09-28T23:04:32.048Z,97005.87
2018-09-28T23:07:00.319Z,97004.73
2018-09-28T23:09:28.800Z,97013.56
2018-09-28T23:11:57.240Z,97007.80
2018-09-28T23:14:25.650Z,97009.36
2018-09-28T23:16:53.960Z,97005.72
2018-09-28T23:19:22.321Z,97005.67
2018-09-28T23:21:50.867Z,97007.71
2018-09-28T23:24:19.182Z,97011.32
2018-09-28T23:26:47.581Z,97010.31
2018-09-28T23:29:16.107Z,97010.44
2018-09-28T23:31:44.423Z,97013.63
2018-09-28T23:34:12.807Z,97010.44
2018-09-28T23:36:41.159Z,97009.22
2018-09-28T23:39:10.633Z,97007.58
2018-09-28T23:41:39.421Z,97004.91
2018-09-28T23:44:08.477Z,97005.27
2018-09-28T23:46:37.361Z,97012.98
2018-09-28T23:49:06.148Z,97012.36
2018-09-28T23:51:34.512Z,97022.66
2018-09-28T23:54:02.934Z,97028.06
2018-09-28T23:56:31.224Z,97026.07
2018-09-28T23:58:59.532Z,97035.48
